sensor_id;sensor_type;location;lat;lon;timestamp;temperature;humidity
4215;DHT22;2121;48.062;7.850;2022-08-21T00:02:22;15.20;99.90
4215;DHT22;2121;48.062;7.850;2022-08-21T00:04:49;15.30;99.90
4215;DHT22;2121;48.062;7.850;2022-08-21T00:07:16;15.50;99.90
4215;DHT22;2121;48.062;7.850;2022-08-21T00:09:43;15.60;99.90
4215;DHT22;2121;48.062;7.850;2022-08-21T00:12:10;15.60;99.90
4215;DHT22;2121;48.062;7.850;2022-08-21T00:14:36;15.70;99.90
4215;DHT22;2121;48.062;7.850;2022-08-21T00:17:03;15.70;99.90
4215;DHT22;2121;48.062;7.850;2022-08-21T00:19:30;15.80;99.90
4215;DHT22;2121;48.062;7.850;2022-08-21T00:21:56;15.80;99.90
4215;DHT22;2121;48.062;7.850;2022-08-21T00:24:23;15.80;99.90
4215;DHT22;2121;48.062;7.850;2022-08-21T00:26:50;15.80;99.90
4215;DHT22;2121;48.062;7.850;2022-08-21T00:29:16;15.90;99.90
4215;DHT22;2121;48.062;7.850;2022-08-21T00:31:43;15.90;99.90
4215;DHT22;2121;48.062;7.850;2022-08-21T00:34:10;15.90;99.90
4215;DHT22;2121;48.062;7.850;2022-08-21T00:36:38;16.00;99.90
4215;DHT22;2121;48.062;7.850;2022-08-21T00:39:06;15.90;99.90
4215;DHT22;2121;48.062;7.850;2022-08-21T00:41:34;16.00;99.90
4215;DHT22;2121;48.062;7.850;2022-08-21T00:44:03;16.00;99.90
4215;DHT22;2121;48.062;7.850;2022-08-21T00:46:30;16.10;99.90
4215;DHT22;2121;48.062;7.850;2022-08-21T00:48:56;16.10;99.90
4215;DHT22;2121;48.062;7.850;2022-08-21T00:51:27;16.10;99.90
4215;DHT22;2121;48.062;7.850;2022-08-21T00:53:59;16.20;99.90
4215;DHT22;2121;48.062;7.850;2022-08-21T00:56:27;16.10;99.90
4215;DHT22;2121;48.062;7.850;2022-08-21T00:58:56;16.10;99.90
4215;DHT22;2121;48.062;7.850;2022-08-21T01:01:23;16.00;99.90
4215;DHT22;2121;48.062;7.850;2022-08-21T01:03:49;15.90;99.90
4215;DHT22;2121;48.062;7.850;2022-08-21T01:06:16;15.80;99.90
4215;DHT22;2121;48.062;7.850;2022-08-21T01:08:42;15.80;99.90
4215;DHT22;2121;48.062;7.850;2022-08-21T01:11:08;15.70;99.90
4215;DHT22;2121;48.062;7.850;2022-08-21T01:13:36;15.60;99.90
4215;DHT22;2121;48.062;7.850;2022-08-21T01:16:08;15.50;99.90
4215;DHT22;2121;48.062;7.850;2022-08-21T01:18:34;15.40;99.90
4215;DHT22;2121;48.062;7.850;2022-08-21T01:23:29;15.20;99.90
4215;DHT22;2121;48.062;7.850;2022-08-21T01:25:55;15.20;99.90
4215;DHT22;2121;48.062;7.850;2022-08-21T01:28:22;15.20;99.90
4215;DHT22;2121;48.062;7.850;2022-08-21T01:30:49;15.20;99.90
4215;DHT22;2121;48.062;7.850;2022-08-21T01:33:18;15.20;99.90
4215;DHT22;2121;48.062;7.850;2022-08-21T01:35:46;15.20;99.90
4215;DHT22;2121;48.062;7.850;2022-08-21T01:38:12;15.10;99.90
4215;DHT22;2121;48.062;7.850;2022-08-21T01:40:38;15.10;99.90
4215;DHT22;2121;48.062;7.850;2022-08-21T01:43:03;15.00;99.90
4215;DHT22;2121;48.062;7.850;2022-08-21T01:45:29;15.00;99.90
4215;DHT22;2121;48.062;7.850;2022-08-21T01:47:55;14.90;99.90
4215;DHT22;2121;48.062;7.850;2022-08-21T01:50:22;14.80;99.90
4215;DHT22;2121;48.062;7.850;2022-08-21T01:52:49;14.80;99.90
4215;DHT22;2121;48.062;7.850;2022-08-21T01:55:16;14.70;99.90
4215;DHT22;2121;48.062;7.850;2022-08-21T01:57:44;14.60;99.90
4215;DHT22;2121;48.062;7.850;2022-08-21T02:00:13;14.60;99.90
4215;DHT22;2121;48.062;7.850;2022-08-21T02:02:40;14.60;99.90
4215;DHT22;2121;48.062;7.850;2022-08-21T02:05:08;14.50;99.90
4215;DHT22;2121;48.062;7.850;2022-08-21T02:07:40;14.40;99.90
4215;DHT22;2121;48.062;7.850;2022-08-21T02:10:09;14.40;99.90
4215;DHT22;2121;48.062;7.850;2022-08-21T02:12:37;14.40;99.90
4215;DHT22;2121;48.062;7.850;2022-08-21T02:15:05;14.30;99.90
4215;DHT22;2121;48.062;7.850;2022-08-21T02:17:52;14.30;99.90
4215;DHT22;2121;48.062;7.850;2022-08-21T02:20:32;14.30;99.90
4215;DHT22;2121;48.062;7.850;2022-08-21T02:23:04;14.40;99.90
4215;DHT22;2121;48.062;7.850;2022-08-21T02:25:31;14.30;99.90
4215;DHT22;2121;48.062;7.850;2022-08-21T02:27:58;14.30;99.90
4215;DHT22;2121;48.062;7.850;2022-08-21T02:30:29;14.30;99.90
4215;DHT22;2121;48.062;7.850;2022-08-21T02:32:57;14.30;99.90
4215;DHT22;2121;48.062;7.850;2022-08-21T02:35:23;14.20;99.90
4215;DHT22;2121;48.062;7.850;2022-08-21T02:37:55;14.10;99.90
4215;DHT22;2121;48.062;7.850;2022-08-21T02:40:27;14.00;99.90
4215;DHT22;2121;48.062;7.850;2022-08-21T02:42:56;14.00;99.90
4215;DHT22;2121;48.062;7.850;2022-08-21T02:45:23;14.10;99.90
4215;DHT22;2121;48.062;7.850;2022-08-21T02:47:54;14.10;99.90
4215;DHT22;2121;48.062;7.850;2022-08-21T02:50:31;14.00;99.90
4215;DHT22;2121;48.062;7.850;2022-08-21T02:52:59;13.90;99.90
4215;DHT22;2121;48.062;7.850;2022-08-21T02:55:29;13.70;99.90
4215;DHT22;2121;48.062;7.850;2022-08-21T02:57:56;13.70;99.90
4215;DHT22;2121;48.062;7.850;2022-08-21T03:00:25;13.70;99.90
4215;DHT22;2121;48.062;7.850;2022-08-21T03:02:54;13.70;99.90
4215;DHT22;2121;48.062;7.850;2022-08-21T03:05:20;13.60;99.90
4215;DHT22;2121;48.062;7.850;2022-08-21T03:07:47;13.50;99.90
4215;DHT22;2121;48.062;7.850;2022-08-21T03:10:14;13.40;99.90
4215;DHT22;2121;48.062;7.850;2022-08-21T03:12:40;13.30;99.90
4215;DHT22;2121;48.062;7.850;2022-08-21T03:15:09;13.30;99.90
4215;DHT22;2121;48.062;7.850;2022-08-21T03:17:38;13.20;99.90
4215;DHT22;2121;48.062;7.850;2022-08-21T03:20:06;13.20;99.90
4215;DHT22;2121;48.062;7.850;2022-08-21T03:22:33;13.20;99.90
4215;DHT22;2121;48.062;7.850;2022-08-21T03:25:00;13.30;99.90
4215;DHT22;2121;48.062;7.850;2022-08-21T03:27:27;13.40;99.90
4215;DHT22;2121;48.062;7.850;2022-08-21T03:29:54;13.40;99.90
4215;DHT22;2121;48.062;7.850;2022-08-21T03:32:20;13.30;99.90
4215;DHT22;2121;48.062;7.850;2022-08-21T03:34:46;13.40;99.90
4215;DHT22;2121;48.062;7.850;2022-08-21T03:37:13;13.40;99.90
4215;DHT22;2121;48.062;7.850;2022-08-21T03:39:40;13.40;99.90
4215;DHT22;2121;48.062;7.850;2022-08-21T03:42:08;13.30;99.90
4215;DHT22;2121;48.062;7.850;2022-08-21T03:44:35;13.20;99.90
4215;DHT22;2121;48.062;7.850;2022-08-21T03:47:01;13.20;99.90
4215;DHT22;2121;48.062;7.850;2022-08-21T03:49:27;13.20;99.90
4215;DHT22;2121;48.062;7.850;2022-08-21T03:51:53;13.10;99.90
4215;DHT22;2121;48.062;7.850;2022-08-21T03:54:19;13.00;99.90
4215;DHT22;2121;48.062;7.850;2022-08-21T03:56:46;12.90;99.90
4215;DHT22;2121;48.062;7.850;2022-08-21T03:59:12;12.90;99.90
4215;DHT22;2121;48.062;7.850;2022-08-21T04:01:37;12.80;99.90
4215;DHT22;2121;48.062;7.850;2022-08-21T04:04:04;12.70;99.90
4215;DHT22;2121;48.062;7.850;2022-08-21T04:06:30;12.70;99.90
4215;DHT22;2121;48.062;7.850;2022-08-21T04:08:56;12.80;99.90
4215;DHT22;2121;48.062;7.850;2022-08-21T04:11:22;12.80;99.90
4215;DHT22;2121;48.062;7.850;2022-08-21T04:13:48;12.80;99.90
4215;DHT22;2121;48.062;7.850;2022-08-21T04:16:14;12.70;99.90
4215;DHT22;2121;48.062;7.850;2022-08-21T04:18:40;12.70;99.90
4215;DHT22;2121;48.062;7.850;2022-08-21T04:21:08;12.70;99.90
4215;DHT22;2121;48.062;7.850;2022-08-21T04:23:36;12.70;99.90
4215;DHT22;2121;48.062;7.850;2022-08-21T04:26:02;12.70;99.90
4215;DHT22;2121;48.062;7.850;2022-08-21T04:28:29;12.70;99.90
4215;DHT22;2121;48.062;7.850;2022-08-21T04:30:55;12.70;99.90
4215;DHT22;2121;48.062;7.850;2022-08-21T04:33:22;12.70;99.90
4215;DHT22;2121;48.062;7.850;2022-08-21T04:35:49;12.70;99.90
4215;DHT22;2121;48.062;7.850;2022-08-21T04:38:16;12.70;99.90
4215;DHT22;2121;48.062;7.850;2022-08-21T04:40:42;12.70;99.90
4215;DHT22;2121;48.062;7.850;2022-08-21T04:43:09;12.70;99.90
4215;DHT22;2121;48.062;7.850;2022-08-21T04:45:38;12.70;99.90
4215;DHT22;2121;48.062;7.850;2022-08-21T04:48:08;12.70;99.90
4215;DHT22;2121;48.062;7.850;2022-08-21T04:50:48;12.80;99.90
4215;DHT22;2121;48.062;7.850;2022-08-21T04:53:30;12.80;99.90
4215;DHT22;2121;48.062;7.850;2022-08-21T04:56:04;12.90;99.90
4215;DHT22;2121;48.062;7.850;2022-08-21T04:58:34;13.10;99.90
4215;DHT22;2121;48.062;7.850;2022-08-21T05:01:02;13.20;99.90
4215;DHT22;2121;48.062;7.850;2022-08-21T05:03:31;13.30;99.90
4215;DHT22;2121;48.062;7.850;2022-08-21T05:05:59;13.40;99.90
4215;DHT22;2121;48.062;7.850;2022-08-21T05:08:26;13.50;99.90
4215;DHT22;2121;48.062;7.850;2022-08-21T05:10:53;13.60;99.90
4215;DHT22;2121;48.062;7.850;2022-08-21T05:13:20;13.80;99.90
4215;DHT22;2121;48.062;7.850;2022-08-21T05:15:46;13.90;99.90
4215;DHT22;2121;48.062;7.850;2022-08-21T05:18:12;14.00;99.90
4215;DHT22;2121;48.062;7.850;2022-08-21T05:20:38;14.10;99.90
4215;DHT22;2121;48.062;7.850;2022-08-21T05:23:09;14.20;99.90
4215;DHT22;2121;48.062;7.850;2022-08-21T05:25:36;14.20;99.90
4215;DHT22;2121;48.062;7.850;2022-08-21T05:28:03;14.20;99.90
4215;DHT22;2121;48.062;7.850;2022-08-21T05:30:29;14.20;99.90
4215;DHT22;2121;48.062;7.850;2022-08-21T05:32:57;14.40;99.90
4215;DHT22;2121;48.062;7.850;2022-08-21T05:35:23;14.60;99.90
4215;DHT22;2121;48.062;7.850;2022-08-21T05:37:50;14.70;99.90
4215;DHT22;2121;48.062;7.850;2022-08-21T05:40:15;14.80;99.90
4215;DHT22;2121;48.062;7.850;2022-08-21T05:42:41;14.80;99.90
4215;DHT22;2121;48.062;7.850;2022-08-21T05:45:07;14.90;99.90
4215;DHT22;2121;48.062;7.850;2022-08-21T05:47:33;15.00;99.90
4215;DHT22;2121;48.062;7.850;2022-08-21T05:49:59;15.10;99.90
4215;DHT22;2121;48.062;7.850;2022-08-21T05:52:25;15.20;99.90
4215;DHT22;2121;48.062;7.850;2022-08-21T05:54:51;15.30;99.90
4215;DHT22;2121;48.062;7.850;2022-08-21T05:57:20;15.40;99.90
4215;DHT22;2121;48.062;7.850;2022-08-21T05:59:46;15.50;99.90
4215;DHT22;2121;48.062;7.850;2022-08-21T06:02:12;15.70;99.90
4215;DHT22;2121;48.062;7.850;2022-08-21T06:04:38;15.80;99.90
4215;DHT22;2121;48.062;7.850;2022-08-21T06:07:05;16.00;99.90
4215;DHT22;2121;48.062;7.850;2022-08-21T06:09:32;16.10;99.90
4215;DHT22;2121;48.062;7.850;2022-08-21T06:11:58;16.10;99.90
4215;DHT22;2121;48.062;7.850;2022-08-21T06:14:28;16.00;99.90
4215;DHT22;2121;48.062;7.850;2022-08-21T06:16:54;16.00;99.90
4215;DHT22;2121;48.062;7.850;2022-08-21T06:19:20;16.20;99.90
4215;DHT22;2121;48.062;7.850;2022-08-21T06:21:45;16.40;99.90
4215;DHT22;2121;48.062;7.850;2022-08-21T06:24:11;16.50;99.90
4215;DHT22;2121;48.062;7.850;2022-08-21T06:26:37;16.80;99.90
4215;DHT22;2121;48.062;7.850;2022-08-21T06:29:04;17.10;99.90
4215;DHT22;2121;48.062;7.850;2022-08-21T06:31:29;17.40;99.90
4215;DHT22;2121;48.062;7.850;2022-08-21T06:33:55;17.60;99.90
4215;DHT22;2121;48.062;7.850;2022-08-21T06:36:25;17.80;99.90
4215;DHT22;2121;48.062;7.850;2022-08-21T06:38:51;17.80;99.90
4215;DHT22;2121;48.062;7.850;2022-08-21T06:41:18;18.00;99.90
4215;DHT22;2121;48.062;7.850;2022-08-21T06:43:44;18.10;99.90
4215;DHT22;2121;48.062;7.850;2022-08-21T06:46:10;18.20;99.90
4215;DHT22;2121;48.062;7.850;2022-08-21T06:48:36;18.40;99.90
4215;DHT22;2121;48.062;7.850;2022-08-21T06:51:02;18.50;99.90
4215;DHT22;2121;48.062;7.850;2022-08-21T06:53:28;18.60;99.90
4215;DHT22;2121;48.062;7.850;2022-08-21T06:55:54;18.50;99.90
4215;DHT22;2121;48.062;7.850;2022-08-21T06:58:19;18.60;99.90
4215;DHT22;2121;48.062;7.850;2022-08-21T07:00:48;18.60;99.90
4215;DHT22;2121;48.062;7.850;2022-08-21T07:03:22;18.70;99.90
4215;DHT22;2121;48.062;7.850;2022-08-21T07:05:50;18.80;99.90
4215;DHT22;2121;48.062;7.850;2022-08-21T07:08:16;19.00;99.90
4215;DHT22;2121;48.062;7.850;2022-08-21T07:10:43;19.00;99.90
4215;DHT22;2121;48.062;7.850;2022-08-21T07:13:09;19.00;99.90
4215;DHT22;2121;48.062;7.850;2022-08-21T07:15:34;19.10;99.90
4215;DHT22;2121;48.062;7.850;2022-08-21T07:18:00;18.90;99.90
4215;DHT22;2121;48.062;7.850;2022-08-21T07:20:30;18.90;99.90
4215;DHT22;2121;48.062;7.850;2022-08-21T07:23:01;19.30;99.90
4215;DHT22;2121;48.062;7.850;2022-08-21T07:25:29;19.60;99.90
4215;DHT22;2121;48.062;7.850;2022-08-21T07:27:55;19.90;99.90
4215;DHT22;2121;48.062;7.850;2022-08-21T07:30:21;20.10;99.90
4215;DHT22;2121;48.062;7.850;2022-08-21T07:32:48;20.40;99.90
4215;DHT22;2121;48.062;7.850;2022-08-21T07:35:18;20.70;99.90
4215;DHT22;2121;48.062;7.850;2022-08-21T07:37:44;20.90;99.90
4215;DHT22;2121;48.062;7.850;2022-08-21T07:40:11;21.10;99.90
4215;DHT22;2121;48.062;7.850;2022-08-21T07:42:45;21.00;99.90
4215;DHT22;2121;48.062;7.850;2022-08-21T07:45:13;20.90;99.90
4215;DHT22;2121;48.062;7.850;2022-08-21T07:47:39;20.90;99.90
4215;DHT22;2121;48.062;7.850;2022-08-21T07:50:06;20.80;99.90
4215;DHT22;2121;48.062;7.850;2022-08-21T07:52:33;20.50;99.90
4215;DHT22;2121;48.062;7.850;2022-08-21T07:54:59;20.30;99.90
4215;DHT22;2121;48.062;7.850;2022-08-21T07:57:25;20.10;99.90
4215;DHT22;2121;48.062;7.850;2022-08-21T07:59:51;20.10;99.90
4215;DHT22;2121;48.062;7.850;2022-08-21T08:02:25;20.10;99.90
4215;DHT22;2121;48.062;7.850;2022-08-21T08:04:53;20.20;99.90
4215;DHT22;2121;48.062;7.850;2022-08-21T08:07:19;20.40;99.90
4215;DHT22;2121;48.062;7.850;2022-08-21T08:09:46;20.40;99.90
4215;DHT22;2121;48.062;7.850;2022-08-21T08:12:12;20.40;99.90
4215;DHT22;2121;48.062;7.850;2022-08-21T08:14:38;20.40;99.90
4215;DHT22;2121;48.062;7.850;2022-08-21T08:17:03;20.20;99.90
4215;DHT22;2121;48.062;7.850;2022-08-21T08:19:29;20.10;99.90
4215;DHT22;2121;48.062;7.850;2022-08-21T08:21:55;20.10;99.90
4215;DHT22;2121;48.062;7.850;2022-08-21T08:24:21;20.40;99.90
4215;DHT22;2121;48.062;7.850;2022-08-21T08:26:47;20.50;99.90
4215;DHT22;2121;48.062;7.850;2022-08-21T08:29:13;20.80;99.90
4215;DHT22;2121;48.062;7.850;2022-08-21T08:31:39;20.90;99.90
4215;DHT22;2121;48.062;7.850;2022-08-21T08:34:04;21.00;99.90
4215;DHT22;2121;48.062;7.850;2022-08-21T08:36:36;21.30;99.90
4215;DHT22;2121;48.062;7.850;2022-08-21T08:39:05;21.50;99.90
4215;DHT22;2121;48.062;7.850;2022-08-21T08:41:32;21.50;99.90
4215;DHT22;2121;48.062;7.850;2022-08-21T08:44:02;21.50;99.90
4215;DHT22;2121;48.062;7.850;2022-08-21T08:46:47;21.40;99.90
4215;DHT22;2121;48.062;7.850;2022-08-21T08:49:42;21.60;99.90
4215;DHT22;2121;48.062;7.850;2022-08-21T08:52:41;21.70;99.90
4215;DHT22;2121;48.062;7.850;2022-08-21T08:55:41;21.50;99.90
4215;DHT22;2121;48.062;7.850;2022-08-21T08:58:39;21.50;99.90
4215;DHT22;2121;48.062;7.850;2022-08-21T09:01:16;21.60;99.90
4215;DHT22;2121;48.062;7.850;2022-08-21T09:03:45;21.90;99.90
4215;DHT22;2121;48.062;7.850;2022-08-21T09:09:08;22.40;99.90
4215;DHT22;2121;48.062;7.850;2022-08-21T09:23:32;23.30;99.80
4215;DHT22;2121;48.062;7.850;2022-08-21T09:26:19;23.50;99.70
4215;DHT22;2121;48.062;7.850;2022-08-21T09:28:54;23.90;98.80
4215;DHT22;2121;48.062;7.850;2022-08-21T09:33:47;23.90;97.90
4215;DHT22;2121;48.062;7.850;2022-08-21T09:36:25;24.20;98.30
4215;DHT22;2121;48.062;7.850;2022-08-21T09:39:07;24.40;97.10
4215;DHT22;2121;48.062;7.850;2022-08-21T09:41:35;24.50;96.50
4215;DHT22;2121;48.062;7.850;2022-08-21T09:44:03;24.30;96.50
4215;DHT22;2121;48.062;7.850;2022-08-21T09:46:31;24.30;96.70
4215;DHT22;2121;48.062;7.850;2022-08-21T09:49:02;24.40;96.50
4215;DHT22;2121;48.062;7.850;2022-08-21T09:51:36;24.70;97.50
4215;DHT22;2121;48.062;7.850;2022-08-21T09:56:34;25.10;95.70
4215;DHT22;2121;48.062;7.850;2022-08-21T09:59:33;25.40;95.50
4215;DHT22;2121;48.062;7.850;2022-08-21T10:02:03;25.60;95.10
4215;DHT22;2121;48.062;7.850;2022-08-21T10:04:51;25.70;94.50
4215;DHT22;2121;48.062;7.850;2022-08-21T10:07:22;25.90;93.70
4215;DHT22;2121;48.062;7.850;2022-08-21T10:10:13;25.80;94.50
4215;DHT22;2121;48.062;7.850;2022-08-21T10:13:03;25.60;93.40
4215;DHT22;2121;48.062;7.850;2022-08-21T10:18:36;25.30;93.80
4215;DHT22;2121;48.062;7.850;2022-08-21T10:30:02;26.00;92.80
4215;DHT22;2121;48.062;7.850;2022-08-21T10:39:34;25.80;92.20
4215;DHT22;2121;48.062;7.850;2022-08-21T10:48:16;26.00;91.80
4215;DHT22;2121;48.062;7.850;2022-08-21T10:51:19;26.30;90.80
4215;DHT22;2121;48.062;7.850;2022-08-21T10:54:05;26.40;90.30
4215;DHT22;2121;48.062;7.850;2022-08-21T10:56:40;26.70;90.60
4215;DHT22;2121;48.062;7.850;2022-08-21T11:02:33;26.80;88.80
4215;DHT22;2121;48.062;7.850;2022-08-21T11:11:21;27.00;86.90
4215;DHT22;2121;48.062;7.850;2022-08-21T11:13:58;27.00;85.10
4215;DHT22;2121;48.062;7.850;2022-08-21T11:16:45;27.20;87.00
4215;DHT22;2121;48.062;7.850;2022-08-21T11:19:31;26.80;86.00
4215;DHT22;2121;48.062;7.850;2022-08-21T11:24:57;27.20;85.20
4215;DHT22;2121;48.062;7.850;2022-08-21T11:30:05;27.30;84.90
4215;DHT22;2121;48.062;7.850;2022-08-21T11:35:58;27.30;84.90
4215;DHT22;2121;48.062;7.850;2022-08-21T11:41:40;27.30;83.00
4215;DHT22;2121;48.062;7.850;2022-08-21T11:50:30;27.20;83.90
4215;DHT22;2121;48.062;7.850;2022-08-21T11:53:28;27.10;83.90
4215;DHT22;2121;48.062;7.850;2022-08-21T11:56:26;27.20;83.30
4215;DHT22;2121;48.062;7.850;2022-08-21T11:59:16;27.40;83.30
4215;DHT22;2121;48.062;7.850;2022-08-21T12:01:46;27.40;82.60
4215;DHT22;2121;48.062;7.850;2022-08-21T12:04:30;28.00;81.80
4215;DHT22;2121;48.062;7.850;2022-08-21T12:07:17;28.30;81.00
4215;DHT22;2121;48.062;7.850;2022-08-21T12:10:19;28.30;79.70
4215;DHT22;2121;48.062;7.850;2022-08-21T12:12:48;28.50;81.70
4215;DHT22;2121;48.062;7.850;2022-08-21T12:17:55;28.80;78.80
4215;DHT22;2121;48.062;7.850;2022-08-21T12:21:04;28.80;78.30
4215;DHT22;2121;48.062;7.850;2022-08-21T12:26:55;29.50;76.90
4215;DHT22;2121;48.062;7.850;2022-08-21T12:29:37;29.00;77.00
4215;DHT22;2121;48.062;7.850;2022-08-21T12:34:52;30.00;74.60
4215;DHT22;2121;48.062;7.850;2022-08-21T12:37:31;29.60;75.10
4215;DHT22;2121;48.062;7.850;2022-08-21T12:40:22;30.70;76.50
4215;DHT22;2121;48.062;7.850;2022-08-21T12:42:53;31.30;73.10
4215;DHT22;2121;48.062;7.850;2022-08-21T12:45:48;31.00;74.20
4215;DHT22;2121;48.062;7.850;2022-08-21T12:48:39;33.20;70.50
4215;DHT22;2121;48.062;7.850;2022-08-21T12:51:23;33.40;68.90
4215;DHT22;2121;48.062;7.850;2022-08-21T12:53:56;32.70;69.10
4215;DHT22;2121;48.062;7.850;2022-08-21T12:56:31;34.10;68.00
4215;DHT22;2121;48.062;7.850;2022-08-21T12:59:07;36.30;65.30
4215;DHT22;2121;48.062;7.850;2022-08-21T13:01:39;37.50;62.50
4215;DHT22;2121;48.062;7.850;2022-08-21T13:04:14;35.60;62.90
4215;DHT22;2121;48.062;7.850;2022-08-21T13:06:47;37.00;61.40
4215;DHT22;2121;48.062;7.850;2022-08-21T13:09:19;37.70;58.70
4215;DHT22;2121;48.062;7.850;2022-08-21T13:11:50;39.60;58.50
4215;DHT22;2121;48.062;7.850;2022-08-21T13:14:34;40.30;56.10
4215;DHT22;2121;48.062;7.850;2022-08-21T13:17:04;41.00;54.90
4215;DHT22;2121;48.062;7.850;2022-08-21T13:19:31;41.40;54.30
4215;DHT22;2121;48.062;7.850;2022-08-21T13:21:58;39.30;54.70
4215;DHT22;2121;48.062;7.850;2022-08-21T13:24:26;37.10;56.30
4215;DHT22;2121;48.062;7.850;2022-08-21T13:26:59;37.30;56.50
4215;DHT22;2121;48.062;7.850;2022-08-21T13:29:31;39.10;54.40
4215;DHT22;2121;48.062;7.850;2022-08-21T13:32:03;39.00;54.00
4215;DHT22;2121;48.062;7.850;2022-08-21T13:34:35;39.70;54.10
4215;DHT22;2121;48.062;7.850;2022-08-21T13:37:06;38.70;53.80
4215;DHT22;2121;48.062;7.850;2022-08-21T13:39:33;39.20;53.30
4215;DHT22;2121;48.062;7.850;2022-08-21T13:42:02;40.40;52.70
4215;DHT22;2121;48.062;7.850;2022-08-21T13:44:39;39.90;52.50
4215;DHT22;2121;48.062;7.850;2022-08-21T13:47:06;38.00;53.40
4215;DHT22;2121;48.062;7.850;2022-08-21T13:49:40;34.90;54.60
4215;DHT22;2121;48.062;7.850;2022-08-21T13:52:25;33.60;58.00
4215;DHT22;2121;48.062;7.850;2022-08-21T13:54:54;32.60;60.20
4215;DHT22;2121;48.062;7.850;2022-08-21T13:57:31;31.90;59.50
4215;DHT22;2121;48.062;7.850;2022-08-21T14:00:28;31.70;59.00
4215;DHT22;2121;48.062;7.850;2022-08-21T14:03:09;32.00;59.70
4215;DHT22;2121;48.062;7.850;2022-08-21T14:05:42;31.90;61.00
4215;DHT22;2121;48.062;7.850;2022-08-21T14:08:22;31.90;59.40
4215;DHT22;2121;48.062;7.850;2022-08-21T14:10:50;31.80;59.10
4215;DHT22;2121;48.062;7.850;2022-08-21T14:16:21;31.80;60.90
4215;DHT22;2121;48.062;7.850;2022-08-21T14:18:53;31.50;61.20
4215;DHT22;2121;48.062;7.850;2022-08-21T14:21:38;31.40;60.80
4215;DHT22;2121;48.062;7.850;2022-08-21T14:24:26;31.50;59.60
4215;DHT22;2121;48.062;7.850;2022-08-21T14:27:12;31.60;60.20
4215;DHT22;2121;48.062;7.850;2022-08-21T14:29:43;32.10;62.90
4215;DHT22;2121;48.062;7.850;2022-08-21T14:32:13;31.90;61.30
4215;DHT22;2121;48.062;7.850;2022-08-21T14:34:53;33.30;59.10
4215;DHT22;2121;48.062;7.850;2022-08-21T14:37:19;35.70;56.20
4215;DHT22;2121;48.062;7.850;2022-08-21T14:39:45;37.20;56.30
4215;DHT22;2121;48.062;7.850;2022-08-21T14:42:12;39.50;55.00
4215;DHT22;2121;48.062;7.850;2022-08-21T14:44:38;41.20;53.40
4215;DHT22;2121;48.062;7.850;2022-08-21T14:47:03;39.30;50.60
4215;DHT22;2121;48.062;7.850;2022-08-21T14:49:30;38.30;53.20
4215;DHT22;2121;48.062;7.850;2022-08-21T14:51:56;40.20;53.10
4215;DHT22;2121;48.062;7.850;2022-08-21T14:54:30;41.70;51.40
4215;DHT22;2121;48.062;7.850;2022-08-21T14:56:59;42.70;50.70
4215;DHT22;2121;48.062;7.850;2022-08-21T14:59:27;43.50;49.80
4215;DHT22;2121;48.062;7.850;2022-08-21T15:01:52;43.80;48.20
4215;DHT22;2121;48.062;7.850;2022-08-21T15:04:18;45.50;46.50
4215;DHT22;2121;48.062;7.850;2022-08-21T15:06:44;45.70;46.60
4215;DHT22;2121;48.062;7.850;2022-08-21T15:09:10;46.90;45.30
4215;DHT22;2121;48.062;7.850;2022-08-21T15:11:36;48.60;42.20
4215;DHT22;2121;48.062;7.850;2022-08-21T15:14:07;49.60;41.80
4215;DHT22;2121;48.062;7.850;2022-08-21T15:16:34;50.10;41.20
4215;DHT22;2121;48.062;7.850;2022-08-21T15:19:00;50.30;40.70
4215;DHT22;2121;48.062;7.850;2022-08-21T15:21:26;48.60;39.70
4215;DHT22;2121;48.062;7.850;2022-08-21T15:23:52;47.70;39.70
4215;DHT22;2121;48.062;7.850;2022-08-21T15:26:20;45.50;40.70
4215;DHT22;2121;48.062;7.850;2022-08-21T15:28:47;45.80;40.60
4215;DHT22;2121;48.062;7.850;2022-08-21T15:31:13;45.50;39.70
4215;DHT22;2121;48.062;7.850;2022-08-21T15:33:38;44.20;41.90
4215;DHT22;2121;48.062;7.850;2022-08-21T15:36:04;42.20;43.00
4215;DHT22;2121;48.062;7.850;2022-08-21T15:38:30;42.10;43.30
4215;DHT22;2121;48.062;7.850;2022-08-21T15:40:56;43.90;43.40
4215;DHT22;2121;48.062;7.850;2022-08-21T15:43:25;44.90;41.90
4215;DHT22;2121;48.062;7.850;2022-08-21T15:45:58;44.30;42.20
4215;DHT22;2121;48.062;7.850;2022-08-21T15:48:25;44.20;41.50
4215;DHT22;2121;48.062;7.850;2022-08-21T15:50:51;42.80;42.20
4215;DHT22;2121;48.062;7.850;2022-08-21T15:53:16;41.50;44.10
4215;DHT22;2121;48.062;7.850;2022-08-21T15:55:42;41.10;44.80
4215;DHT22;2121;48.062;7.850;2022-08-21T15:58:13;41.50;44.50
4215;DHT22;2121;48.062;7.850;2022-08-21T16:00:41;40.70;44.40
4215;DHT22;2121;48.062;7.850;2022-08-21T16:03:11;40.00;44.00
4215;DHT22;2121;48.062;7.850;2022-08-21T16:05:41;39.70;45.10
4215;DHT22;2121;48.062;7.850;2022-08-21T16:08:07;38.40;46.20
4215;DHT22;2121;48.062;7.850;2022-08-21T16:10:35;37.40;47.30
4215;DHT22;2121;48.062;7.850;2022-08-21T16:13:04;38.10;47.70
4215;DHT22;2121;48.062;7.850;2022-08-21T16:15:32;39.30;46.40
4215;DHT22;2121;48.062;7.850;2022-08-21T16:17:58;40.80;45.90
4215;DHT22;2121;48.062;7.850;2022-08-21T16:20:27;42.80;44.80
4215;DHT22;2121;48.062;7.850;2022-08-21T16:22:55;43.70;43.10
4215;DHT22;2121;48.062;7.850;2022-08-21T16:25:23;42.90;42.30
4215;DHT22;2121;48.062;7.850;2022-08-21T16:27:55;42.10;43.50
4215;DHT22;2121;48.062;7.850;2022-08-21T16:30:24;41.00;43.60
4215;DHT22;2121;48.062;7.850;2022-08-21T16:32:51;41.80;43.60
4215;DHT22;2121;48.062;7.850;2022-08-21T16:35:19;41.90;43.60
4215;DHT22;2121;48.062;7.850;2022-08-21T16:37:45;40.40;43.80
4215;DHT22;2121;48.062;7.850;2022-08-21T16:40:12;38.00;46.20
4215;DHT22;2121;48.062;7.850;2022-08-21T16:42:40;38.20;46.60
4215;DHT22;2121;48.062;7.850;2022-08-21T16:45:09;38.60;45.70
4215;DHT22;2121;48.062;7.850;2022-08-21T16:47:38;38.70;46.00
4215;DHT22;2121;48.062;7.850;2022-08-21T16:50:05;39.00;46.50
4215;DHT22;2121;48.062;7.850;2022-08-21T16:52:32;39.30;45.60
4215;DHT22;2121;48.062;7.850;2022-08-21T16:54:59;39.20;45.10
4215;DHT22;2121;48.062;7.850;2022-08-21T16:57:24;40.00;44.10
4215;DHT22;2121;48.062;7.850;2022-08-21T16:59:50;39.70;44.90
4215;DHT22;2121;48.062;7.850;2022-08-21T17:02:31;38.60;46.40
4215;DHT22;2121;48.062;7.850;2022-08-21T17:04:58;37.50;46.50
4215;DHT22;2121;48.062;7.850;2022-08-21T17:07:25;37.00;47.80
4215;DHT22;2121;48.062;7.850;2022-08-21T17:09:51;36.10;48.60
4215;DHT22;2121;48.062;7.850;2022-08-21T17:12:17;34.90;48.80
4215;DHT22;2121;48.062;7.850;2022-08-21T17:14:43;33.50;50.90
4215;DHT22;2121;48.062;7.850;2022-08-21T17:17:09;32.10;53.50
4215;DHT22;2121;48.062;7.850;2022-08-21T17:19:35;31.00;54.60
4215;DHT22;2121;48.062;7.850;2022-08-21T17:22:02;30.30;55.30
4215;DHT22;2121;48.062;7.850;2022-08-21T17:24:28;29.70;55.90
4215;DHT22;2121;48.062;7.850;2022-08-21T17:26:55;29.10;57.20
4215;DHT22;2121;48.062;7.850;2022-08-21T17:29:27;28.70;57.70
4215;DHT22;2121;48.062;7.850;2022-08-21T17:31:56;28.80;56.90
4215;DHT22;2121;48.062;7.850;2022-08-21T17:34:22;28.80;57.50
4215;DHT22;2121;48.062;7.850;2022-08-21T17:36:49;28.40;57.50
4215;DHT22;2121;48.062;7.850;2022-08-21T17:39:14;27.70;57.50
4215;DHT22;2121;48.062;7.850;2022-08-21T17:41:41;27.30;59.10
4215;DHT22;2121;48.062;7.850;2022-08-21T17:44:09;27.00;58.60
4215;DHT22;2121;48.062;7.850;2022-08-21T17:46:36;26.80;58.70
4215;DHT22;2121;48.062;7.850;2022-08-21T17:49:06;26.60;58.50